createdAt,value
2017-10-16T00:01:46.220Z,99.90
2017-10-16T00:04:13.691Z,99.90
2017-10-16T00:06:41.174Z,99.90
2017-10-16T00:09:09.720Z,99.90
2017-10-16T00:11:37.207Z,99.90
2017-10-16T00:14:05.508Z,99.90
2017-10-16T00:16:32.992Z,99.90
2017-10-16T00:19:00.506Z,99.90
2017-10-16T00:21:28.816Z,99.90
2017-10-16T00:23:56.299Z,99.90
2017-10-16T00:26:23.771Z,99.90
2017-10-16T00:28:51.267Z,99.90
2017-10-16T00:31:18.759Z,99.90
2017-10-16T00:33:46.238Z,99.90
2017-10-16T00:36:13.869Z,99.90
2017-10-16T00:38:41.359Z,99.90
2017-10-16T00:41:11.163Z,99.90
2017-10-16T00:43:40.345Z,99.90
2017-10-16T00:46:08.409Z,99.90
2017-10-16T00:48:35.936Z,99.90
2017-10-16T00:51:04.192Z,99.90
2017-10-16T00:53:31.762Z,99.90
2017-10-16T00:55:59.249Z,99.90
2017-10-16T00:58:26.761Z,99.90
2017-10-16T01:00:54.244Z,99.90
2017-10-16T01:03:22.492Z,99.90
2017-10-16T01:05:49.982Z,99.90
2017-10-16T01:08:18.229Z,99.90
2017-10-16T01:10:45.728Z,99.90
2017-10-16T01:13:14.090Z,99.90
2017-10-16T01:15:42.339Z,99.90
2017-10-16T01:18:10.916Z,99.90
2017-10-16T01:20:38.399Z,99.90
2017-10-16T01:23:05.902Z,99.90
2017-10-16T01:25:33.413Z,99.90
2017-10-16T01:28:00.899Z,99.90
2017-10-16T01:30:28.375Z,99.90
2017-10-16T01:32:55.855Z,99.90
2017-10-16T01:35:23.360Z,99.90
2017-10-16T01:37:51.648Z,99.90
2017-10-16T01:40:19.896Z,99.90
2017-10-16T01:42:48.191Z,99.90
2017-10-16T01:45:16.468Z,99.90
2017-10-16T01:47:44.720Z,99.90
2017-10-16T01:50:12.211Z,99.90
2017-10-16T01:52:41.393Z,99.90
2017-10-16T01:55:09.679Z,99.90
2017-10-16T01:57:37.955Z,99.90
2017-10-16T02:00:05.511Z,99.90
2017-10-16T02:02:33.757Z,99.90
2017-10-16T02:05:01.246Z,99.90
2017-10-16T02:07:29.556Z,99.90
2017-10-16T02:09:57.084Z,99.90
2017-10-16T02:12:25.340Z,99.90
2017-10-16T02:14:52.820Z,99.90
2017-10-16T02:17:21.064Z,99.90
2017-10-16T02:19:48.555Z,99.90
2017-10-16T02:22:16.811Z,99.90
2017-10-16T02:24:44.298Z,99.90
2017-10-16T02:27:12.548Z,99.90
2017-10-16T02:29:41.711Z,99.90
2017-10-16T02:32:09.184Z,99.90
2017-10-16T02:34:36.812Z,99.90
2017-10-16T02:37:04.336Z,99.90
2017-10-16T02:39:32.583Z,99.90
2017-10-16T02:42:00.063Z,99.90
2017-10-16T02:44:27.566Z,99.90
2017-10-16T02:46:55.043Z,99.90
2017-10-16T02:49:22.543Z,99.90
2017-10-16T02:51:50.783Z,99.90
2017-10-16T02:54:18.265Z,99.90
2017-10-16T02:56:45.846Z,99.90
2017-10-16T02:59:14.111Z,99.90
2017-10-16T03:01:42.967Z,99.90
2017-10-16T03:04:10.461Z,99.90
2017-10-16T03:06:38.738Z,99.90
2017-10-16T03:09:06.984Z,99.90
2017-10-16T03:11:34.474Z,99.90
2017-10-16T03:14:02.762Z,99.90
2017-10-16T03:16:31.012Z,99.90
2017-10-16T03:18:59.311Z,99.90
2017-10-16T03:21:27.556Z,99.90
2017-10-16T03:23:55.032Z,99.90
2017-10-16T03:26:22.597Z,99.90
2017-10-16T03:28:50.884Z,99.90
2017-10-16T03:31:19.127Z,99.90
2017-10-16T03:33:46.611Z,99.90
2017-10-16T03:36:14.852Z,99.90
2017-10-16T03:38:43.644Z,99.90
2017-10-16T03:41:11.159Z,99.90
2017-10-16T03:43:38.639Z,99.90
2017-10-16T03:46:06.119Z,99.90
2017-10-16T03:48:33.607Z,99.90
2017-10-16T03:51:01.851Z,99.90
2017-10-16T03:53:29.329Z,99.90
2017-10-16T03:55:56.818Z,99.90
2017-10-16T03:58:24.294Z,99.90
2017-10-16T04:00:51.821Z,99.90
2017-10-16T04:03:20.094Z,99.90
2017-10-16T04:05:48.345Z,99.90
2017-10-16T04:08:15.827Z,99.90
2017-10-16T04:10:45.298Z,99.90
2017-10-16T04:13:13.706Z,99.90
2017-10-16T04:15:41.962Z,99.90
2017-10-16T04:18:09.552Z,99.90
2017-10-16T04:20:37.796Z,99.90
2017-10-16T04:23:05.280Z,99.90
2017-10-16T04:25:33.539Z,99.90
2017-10-16T04:28:01.020Z,99.90
2017-10-16T04:30:29.259Z,99.90
2017-10-16T04:32:56.747Z,99.90
2017-10-16T04:35:25.000Z,99.90
2017-10-16T04:37:52.476Z,99.90
2017-10-16T04:40:20.039Z,99.90
2017-10-16T04:42:48.330Z,99.90
2017-10-16T04:45:16.570Z,99.90
2017-10-16T04:47:45.185Z,99.90
2017-10-16T04:50:14.347Z,99.90
2017-10-16T04:52:41.829Z,99.90
2017-10-16T04:55:09.395Z,99.90
2017-10-16T04:57:36.875Z,99.90
2017-10-16T05:00:04.420Z,99.90
2017-10-16T05:02:32.674Z,99.90
2017-10-16T05:05:00.152Z,99.90
2017-10-16T05:07:28.422Z,99.90
2017-10-16T05:09:56.950Z,99.90
2017-10-16T05:12:24.426Z,99.90
2017-10-16T05:14:51.908Z,99.90
2017-10-16T05:17:19.410Z,99.90
2017-10-16T05:19:46.944Z,99.90
2017-10-16T05:22:15.907Z,99.90
2017-10-16T05:24:43.396Z,99.90
2017-10-16T05:27:11.645Z,99.90
2017-10-16T05:29:39.130Z,99.90
2017-10-16T05:32:06.640Z,99.90
2017-10-16T05:34:34.174Z,99.90
2017-10-16T05:37:01.708Z,99.90
2017-10-16T05:39:29.959Z,99.90
2017-10-16T05:41:57.436Z,99.90
2017-10-16T05:44:25.715Z,99.90
2017-10-16T05:46:53.971Z,99.90
2017-10-16T05:49:21.451Z,99.90
2017-10-16T05:51:49.971Z,99.90
2017-10-16T05:54:17.464Z,99.90
2017-10-16T05:56:45.859Z,99.90
2017-10-16T05:59:13.343Z,99.90
2017-10-16T06:01:41.594Z,99.90
2017-10-16T06:04:09.069Z,99.90
2017-10-16T06:06:37.349Z,99.90
2017-10-16T06:09:05.613Z,99.90
2017-10-16T06:11:33.860Z,99.90
2017-10-16T06:14:01.341Z,99.90
2017-10-16T06:16:29.602Z,99.90
2017-10-16T06:18:57.087Z,99.90
2017-10-16T06:21:25.332Z,99.90
2017-10-16T06:23:52.821Z,99.90
2017-10-16T06:26:21.075Z,99.90
2017-10-16T06:28:48.552Z,99.90
2017-10-16T06:31:17.652Z,99.90
2017-10-16T06:33:46.857Z,99.90
2017-10-16T06:36:14.341Z,99.90
2017-10-16T06:38:41.872Z,99.90
2017-10-16T06:41:10.112Z,99.90
2017-10-16T06:43:37.592Z,99.90
2017-10-16T06:46:05.871Z,99.90
2017-10-16T06:48:33.346Z,99.90
2017-10-16T06:51:01.592Z,99.90
2017-10-16T06:53:29.079Z,99.90
2017-10-16T06:55:57.320Z,99.90
2017-10-16T06:58:24.906Z,99.90
2017-10-16T07:00:53.159Z,99.90
2017-10-16T07:03:20.634Z,99.90
2017-10-16T07:05:48.878Z,99.90
2017-10-16T07:08:16.467Z,99.90
2017-10-16T07:10:43.946Z,99.90
2017-10-16T07:13:11.434Z,99.90
2017-10-16T07:15:38.924Z,99.90
2017-10-16T07:18:06.504Z,99.90
2017-10-16T07:20:34.776Z,99.90
2017-10-16T07:23:02.344Z,99.90
2017-10-16T07:25:30.624Z,99.90
2017-10-16T07:27:58.868Z,99.90
2017-10-16T07:30:26.359Z,99.90
2017-10-16T07:32:54.607Z,99.90
2017-10-16T07:35:22.860Z,99.90
2017-10-16T07:37:50.354Z,99.90
2017-10-16T07:40:19.342Z,99.90
2017-10-16T07:42:46.932Z,99.90
2017-10-16T07:45:15.195Z,99.90
2017-10-16T07:47:43.449Z,99.90
2017-10-16T07:50:10.931Z,99.90
2017-10-16T07:52:39.187Z,99.90
2017-10-16T07:55:06.768Z,99.90
2017-10-16T07:57:35.047Z,99.90
2017-10-16T08:00:03.323Z,99.90
2017-10-16T08:02:31.603Z,99.90
2017-10-16T08:04:59.857Z,99.90
2017-10-16T08:07:27.441Z,99.90
2017-10-16T08:09:55.686Z,99.90
2017-10-16T08:12:23.940Z,99.90
2017-10-16T08:14:51.436Z,99.90
2017-10-16T08:17:20.310Z,99.90
2017-10-16T08:19:50.228Z,99.90
2017-10-16T08:22:17.721Z,99.90
2017-10-16T08:24:45.984Z,99.90
2017-10-16T08:27:14.240Z,99.90
2017-10-16T08:29:41.740Z,99.90
2017-10-16T08:32:09.220Z,99.90
2017-10-16T08:34:36.703Z,99.90
2017-10-16T08:37:04.195Z,99.90
2017-10-16T08:39:32.475Z,99.90
2017-10-16T08:42:00.717Z,99.90
2017-10-16T08:44:28.302Z,99.90
2017-10-16T08:46:55.784Z,99.90
2017-10-16T08:49:23.323Z,99.90
2017-10-16T08:51:51.602Z,99.90
2017-10-16T08:54:20.776Z,99.90
2017-10-16T08:56:48.359Z,99.90
2017-10-16T08:59:16.611Z,99.90
2017-10-16T09:01:44.091Z,99.90
2017-10-16T09:04:12.341Z,99.90
2017-10-16T09:06:39.831Z,99.90
2017-10-16T09:09:08.075Z,99.90
2017-10-16T09:11:35.563Z,99.90
2017-10-16T09:14:03.823Z,99.90
2017-10-16T09:16:31.398Z,99.90
2017-10-16T09:18:59.638Z,99.90
2017-10-16T09:21:27.236Z,99.90
2017-10-16T09:23:55.488Z,99.90
2017-10-16T09:26:22.966Z,99.90
2017-10-16T09:28:52.155Z,99.90
2017-10-16T09:31:19.637Z,99.90
2017-10-16T09:33:47.906Z,99.90
2017-10-16T09:36:16.184Z,99.90
2017-10-16T09:38:44.456Z,99.90
2017-10-16T09:41:12.710Z,99.90
2017-10-16T09:43:40.216Z,99.90
2017-10-16T09:46:07.813Z,99.90
2017-10-16T09:48:35.311Z,99.90
2017-10-16T09:51:03.564Z,99.90
2017-10-16T09:53:31.043Z,99.90
2017-10-16T09:55:59.326Z,99.90
2017-10-16T09:58:27.591Z,99.90
2017-10-16T10:00:55.845Z,99.90
2017-10-16T10:03:23.379Z,99.90
2017-10-16T10:05:50.870Z,99.90
2017-10-16T10:08:18.386Z,99.90
2017-10-16T10:10:45.869Z,99.90
2017-10-16T10:13:13.361Z,99.90
2017-10-16T10:15:41.607Z,99.90
2017-10-16T10:18:09.098Z,99.90
2017-10-16T10:20:37.361Z,99.90
2017-10-16T10:23:04.830Z,99.90
2017-10-16T10:25:33.080Z,99.90
2017-10-16T10:28:00.566Z,99.90
2017-10-16T10:30:28.844Z,99.90
2017-10-16T10:32:57.088Z,97.30
2017-10-16T10:35:24.572Z,97.20
2017-10-16T10:37:52.054Z,96.20
2017-10-16T10:40:19.536Z,91.40
2017-10-16T10:42:47.156Z,90.10
2017-10-16T10:45:15.412Z,78.50
2017-10-16T10:47:42.892Z,78.40
2017-10-16T10:50:11.151Z,70.90
2017-10-16T10:52:38.740Z,70.70
2017-10-16T10:55:06.999Z,67.60
2017-10-16T10:57:35.260Z,65.30
2017-10-16T11:00:04.250Z,61.20
2017-10-16T11:02:31.840Z,61.30
2017-10-16T11:05:00.091Z,58.00
2017-10-16T11:07:28.363Z,55.40
2017-10-16T11:09:55.835Z,55.50
2017-10-16T11:12:23.439Z,54.20
2017-10-16T11:14:51.032Z,54.00
2017-10-16T11:17:18.508Z,53.10
2017-10-16T11:19:45.999Z,52.60
2017-10-16T11:22:13.490Z,50.40
2017-10-16T11:24:40.972Z,49.90
2017-10-16T11:27:08.586Z,49.70
2017-10-16T11:29:36.064Z,48.60
2017-10-16T11:32:03.572Z,48.40
2017-10-16T11:34:31.846Z,47.20
2017-10-16T11:37:00.129Z,47.30
2017-10-16T11:39:28.376Z,46.50
2017-10-16T11:41:56.766Z,44.90
2017-10-16T11:44:24.251Z,44.90
2017-10-16T11:46:52.519Z,42.40
2017-10-16T11:49:20.796Z,41.20
2017-10-16T11:51:49.044Z,41.40
2017-10-16T11:54:16.819Z,41.40
2017-10-16T11:56:44.303Z,40.80
2017-10-16T11:59:12.547Z,40.30
2017-10-16T12:01:40.022Z,40.20
2017-10-16T12:04:08.275Z,40.30
2017-10-16T12:06:35.866Z,39.80
2017-10-16T12:09:04.144Z,39.00
2017-10-16T12:11:32.392Z,38.60
2017-10-16T12:13:59.883Z,38.50
2017-10-16T12:16:28.118Z,37.50
2017-10-16T12:18:55.611Z,37.30
2017-10-16T12:21:23.855Z,37.20
2017-10-16T12:23:51.355Z,37.10
2017-10-16T12:26:19.606Z,36.00
2017-10-16T12:28:47.091Z,35.90
2017-10-16T12:31:14.578Z,35.30
2017-10-16T12:33:42.093Z,35.10
2017-10-16T12:36:10.370Z,34.90
2017-10-16T12:38:38.636Z,35.40
2017-10-16T12:41:06.128Z,35.40
2017-10-16T12:43:33.621Z,35.50
2017-10-16T12:46:01.112Z,35.70
2017-10-16T12:48:28.599Z,35.80
2017-10-16T12:50:56.133Z,36.00
2017-10-16T12:53:24.384Z,37.90
2017-10-16T12:55:51.876Z,37.70
2017-10-16T12:58:20.130Z,35.60
2017-10-16T13:00:48.135Z,35.50
2017-10-16T13:03:15.620Z,35.30
2017-10-16T13:05:43.131Z,34.70
2017-10-16T13:08:10.631Z,34.00
2017-10-16T13:10:38.160Z,35.50
2017-10-16T13:13:06.676Z,35.90
2017-10-16T13:15:34.159Z,35.90
2017-10-16T13:18:01.647Z,36.30
2017-10-16T13:20:29.215Z,36.20
2017-10-16T13:22:57.459Z,35.60
2017-10-16T13:25:25.059Z,35.50
2017-10-16T13:27:52.543Z,35.20
2017-10-16T13:30:20.015Z,36.10
2017-10-16T13:32:47.522Z,36.80
2017-10-16T13:35:15.773Z,38.30
2017-10-16T13:37:43.358Z,38.30
2017-10-16T13:40:11.607Z,38.10
2017-10-16T13:42:39.205Z,37.70
2017-10-16T13:45:07.468Z,37.50
2017-10-16T13:47:35.732Z,36.40
2017-10-16T13:50:03.976Z,36.30
2017-10-16T13:52:31.492Z,36.30
2017-10-16T13:54:59.866Z,36.40
2017-10-16T13:57:28.112Z,36.70
2017-10-16T13:59:55.596Z,36.60
2017-10-16T14:02:23.882Z,36.30
2017-10-16T14:04:52.137Z,36.30
2017-10-16T14:07:20.535Z,36.30
2017-10-16T14:09:48.842Z,37.80
2017-10-16T14:12:16.367Z,37.70
2017-10-16T14:14:44.615Z,36.70
2017-10-16T14:17:12.202Z,36.60
2017-10-16T14:19:40.479Z,37.00
2017-10-16T14:22:08.733Z,38.40
2017-10-16T14:24:36.239Z,38.30
2017-10-16T14:27:03.777Z,38.50
2017-10-16T14:29:32.029Z,38.70
2017-10-16T14:31:59.516Z,38.70
2017-10-16T14:34:27.769Z,39.20
2017-10-16T14:36:55.342Z,39.10
2017-10-16T14:39:23.598Z,40.20
2017-10-16T14:41:52.583Z,40.30
2017-10-16T14:44:20.108Z,40.20
2017-10-16T14:46:47.610Z,41.10
2017-10-16T14:49:15.191Z,41.50
2017-10-16T14:51:43.469Z,42.70
2017-10-16T14:54:11.786Z,43.60
2017-10-16T14:56:39.279Z,43.50
2017-10-16T14:59:06.866Z,44.50
2017-10-16T15:01:35.138Z,46.90
2017-10-16T15:04:03.395Z,48.90
2017-10-16T15:06:31.616Z,48.90
2017-10-16T15:08:59.163Z,50.30
2017-10-16T15:11:27.426Z,53.00
2017-10-16T15:13:55.675Z,53.80
2017-10-16T15:16:23.167Z,53.70
2017-10-16T15:18:51.419Z,56.30
2017-10-16T15:21:19.677Z,57.70
2017-10-16T15:23:47.280Z,57.70
2017-10-16T15:26:15.562Z,60.30
2017-10-16T15:28:43.806Z,62.00
2017-10-16T15:31:11.299Z,62.00
2017-10-16T15:33:39.555Z,66.40
2017-10-16T15:36:07.040Z,66.30
2017-10-16T15:38:34.587Z,68.60
2017-10-16T15:41:03.337Z,78.40
2017-10-16T15:43:30.864Z,77.80
2017-10-16T15:45:58.361Z,85.20
2017-10-16T15:48:25.856Z,91.50
2017-10-16T15:50:53.461Z,95.90
2017-10-16T15:53:20.952Z,99.90
2017-10-16T15:55:48.529Z,99.90
2017-10-16T15:58:16.781Z,99.90
2017-10-16T16:00:45.930Z,99.90
2017-10-16T16:03:13.409Z,99.90
2017-10-16T16:05:40.919Z,99.90
2017-10-16T16:08:09.180Z,99.90
2017-10-16T16:10:37.931Z,99.90
2017-10-16T16:13:05.433Z,99.90
2017-10-16T16:15:32.922Z,99.90
2017-10-16T16:18:00.695Z,99.90
2017-10-16T16:20:28.188Z,99.90
2017-10-16T16:22:55.687Z,99.90
2017-10-16T16:25:23.935Z,99.90
2017-10-16T16:27:51.415Z,99.90
2017-10-16T16:30:19.708Z,99.90
2017-10-16T16:32:47.259Z,99.90
2017-10-16T16:35:15.526Z,99.90
2017-10-16T16:37:43.913Z,99.90
2017-10-16T16:40:12.163Z,99.90
2017-10-16T16:42:39.647Z,99.90
2017-10-16T16:45:07.919Z,99.90
2017-10-16T16:47:36.181Z,99.90
2017-10-16T16:50:04.443Z,99.90
2017-10-16T16:52:31.950Z,99.90
2017-10-16T16:54:59.445Z,99.90
2017-10-16T16:57:26.930Z,99.90
2017-10-16T16:59:54.528Z,99.90
2017-10-16T17:02:22.306Z,99.90
2017-10-16T17:04:50.062Z,99.90
2017-10-16T17:07:18.456Z,99.90
2017-10-16T17:09:45.950Z,99.90
2017-10-16T17:12:13.472Z,99.90
2017-10-16T17:14:40.998Z,99.90
2017-10-16T17:17:09.260Z,99.90
2017-10-16T17:19:37.536Z,99.90
2017-10-16T17:22:05.836Z,99.90
2017-10-16T17:24:33.333Z,99.90
2017-10-16T17:27:00.836Z,99.90
2017-10-16T17:29:28.339Z,99.90
2017-10-16T17:31:55.877Z,99.90
2017-10-16T17:34:23.388Z,99.90
2017-10-16T17:36:50.875Z,99.90
2017-10-16T17:39:19.224Z,99.90
2017-10-16T17:41:46.729Z,99.90
2017-10-16T17:44:14.220Z,99.90
2017-10-16T17:46:41.734Z,99.90
2017-10-16T17:49:09.305Z,99.90
2017-10-16T17:51:36.981Z,99.90
2017-10-16T17:54:04.509Z,99.90
2017-10-16T17:56:32.771Z,99.90
2017-10-16T17:59:00.418Z,99.90
2017-10-16T18:01:27.912Z,99.90
2017-10-16T18:03:57.503Z,99.90
2017-10-16T18:06:25.213Z,99.90
2017-10-16T18:08:52.699Z,99.90
2017-10-16T18:11:20.202Z,99.90
2017-10-16T18:13:48.458Z,99.90
2017-10-16T18:16:16.739Z,99.90
2017-10-16T18:18:44.665Z,99.90
2017-10-16T18:21:12.160Z,99.90
2017-10-16T18:23:39.650Z,99.90
2017-10-16T18:26:07.908Z,99.90
2017-10-16T18:28:36.180Z,99.90
2017-10-16T18:31:04.478Z,99.90
2017-10-16T18:33:32.030Z,99.90
2017-10-16T18:35:59.618Z,99.90
2017-10-16T18:38:27.172Z,99.90
2017-10-16T18:40:54.699Z,99.90
2017-10-16T18:43:23.417Z,99.90
2017-10-16T18:45:51.243Z,99.90
2017-10-16T18:48:19.499Z,99.90
2017-10-16T18:50:47.036Z,99.90
2017-10-16T18:53:14.571Z,99.90
2017-10-16T18:55:42.887Z,99.90
2017-10-16T18:58:10.826Z,99.90
2017-10-16T19:00:38.739Z,99.90
2017-10-16T19:03:06.659Z,99.90
2017-10-16T19:05:35.271Z,99.90
2017-10-16T19:08:03.833Z,99.90
2017-10-16T19:10:31.705Z,99.90
2017-10-16T19:12:59.592Z,99.90
2017-10-16T19:15:28.445Z,99.90
2017-10-16T19:17:56.369Z,99.90
2017-10-16T19:20:24.291Z,99.90
2017-10-16T19:22:52.261Z,99.90
2017-10-16T19:25:20.231Z,99.90
2017-10-16T19:27:48.301Z,99.90
2017-10-16T19:30:16.182Z,99.90
2017-10-16T19:32:44.036Z,99.90
2017-10-16T19:35:13.185Z,99.90
2017-10-16T19:37:41.454Z,99.90
2017-10-16T19:40:08.964Z,99.90
2017-10-16T19:42:36.790Z,99.90
2017-10-16T19:45:04.350Z,99.90
2017-10-16T19:47:32.622Z,99.90
2017-10-16T19:50:00.962Z,99.90
2017-10-16T19:52:29.974Z,99.90
2017-10-16T19:54:59.237Z,99.90
2017-10-16T19:57:27.149Z,99.90
2017-10-16T19:59:55.164Z,99.90
2017-10-16T20:02:22.723Z,99.90
2017-10-16T20:04:50.301Z,99.90
2017-10-16T20:07:18.794Z,99.90
2017-10-16T20:09:46.346Z,99.90
2017-10-16T20:12:14.633Z,99.90
2017-10-16T20:14:42.925Z,99.90
2017-10-16T20:17:11.265Z,99.90
2017-10-16T20:19:38.901Z,99.90
2017-10-16T20:22:07.795Z,99.90
2017-10-16T20:24:36.099Z,99.90
2017-10-16T20:27:03.714Z,99.90
2017-10-16T20:29:31.297Z,99.90
2017-10-16T20:32:00.503Z,99.90
2017-10-16T20:34:28.039Z,99.90
2017-10-16T20:36:58.334Z,99.90
2017-10-16T20:39:25.833Z,99.90
2017-10-16T20:41:54.105Z,99.90
2017-10-16T20:44:21.670Z,99.90
2017-10-16T20:46:49.923Z,99.90
2017-10-16T20:49:18.128Z,99.90
2017-10-16T20:51:46.396Z,99.90
2017-10-16T20:54:14.673Z,99.90
2017-10-16T20:56:42.791Z,99.90
2017-10-16T20:59:10.423Z,99.90
2017-10-16T21:01:37.970Z,99.90
2017-10-16T21:04:06.372Z,99.90
2017-10-16T21:06:33.892Z,99.90
2017-10-16T21:09:02.159Z,99.90
2017-10-16T21:11:31.585Z,99.90
2017-10-16T21:14:00.762Z,99.90
2017-10-16T21:16:28.236Z,99.90
2017-10-16T21:18:56.521Z,99.90
2017-10-16T21:21:24.772Z,99.90
2017-10-16T21:23:53.020Z,99.90
2017-10-16T21:26:21.336Z,99.90
2017-10-16T21:28:48.841Z,99.90
2017-10-16T21:31:16.320Z,99.90
2017-10-16T21:33:43.820Z,99.90
2017-10-16T21:36:12.064Z,99.90
2017-10-16T21:38:40.443Z,99.90
2017-10-16T21:41:08.070Z,99.90
2017-10-16T21:43:35.604Z,99.90
2017-10-16T21:46:03.876Z,99.90
2017-10-16T21:48:32.134Z,99.90
2017-10-16T21:51:00.539Z,99.90
2017-10-16T21:53:28.838Z,99.90
2017-10-16T21:55:56.339Z,99.90
2017-10-16T21:58:23.815Z,99.90
2017-10-16T22:00:52.114Z,99.90
2017-10-16T22:03:19.623Z,99.90
2017-10-16T22:05:47.096Z,99.90
2017-10-16T22:08:14.671Z,99.90
2017-10-16T22:10:42.924Z,99.90
2017-10-16T22:13:10.426Z,99.90
2017-10-16T22:15:37.935Z,99.90
2017-10-16T22:18:05.428Z,99.90
2017-10-16T22:20:33.681Z,99.90
2017-10-16T22:23:01.161Z,99.90
2017-10-16T22:25:29.414Z,99.90
2017-10-16T22:27:57.660Z,99.90
2017-10-16T22:30:25.133Z,99.90
2017-10-16T22:32:52.734Z,99.90
2017-10-16T22:35:20.974Z,99.90
2017-10-16T22:37:48.454Z,99.90
2017-10-16T22:40:16.744Z,99.90
2017-10-16T22:42:44.991Z,99.90
2017-10-16T22:45:12.472Z,99.90
2017-10-16T22:47:40.751Z,99.90
2017-10-16T22:50:08.996Z,99.90
2017-10-16T22:52:36.508Z,99.90
2017-10-16T22:55:03.998Z,99.90
2017-10-16T22:57:31.479Z,99.90
2017-10-16T22:59:58.951Z,99.90
2017-10-16T23:02:26.442Z,99.90
2017-10-16T23:04:53.923Z,99.90
2017-10-16T23:07:21.399Z,99.90
2017-10-16T23:09:48.887Z,99.90
2017-10-16T23:12:16.365Z,99.90
2017-10-16T23:14:44.673Z,99.90
2017-10-16T23:17:12.178Z,99.90
2017-10-16T23:19:39.652Z,99.90
2017-10-16T23:22:07.901Z,99.90
2017-10-16T23:24:35.394Z,99.90
2017-10-16T23:27:03.662Z,99.90
2017-10-16T23:29:32.520Z,99.90
2017-10-16T23:32:00.012Z,99.90
2017-10-16T23:34:28.284Z,99.90
2017-10-16T23:36:56.532Z,99.90
2017-10-16T23:39:24.025Z,99.90
2017-10-16T23:41:52.268Z,99.90
2017-10-16T23:44:19.826Z,99.90
2017-10-16T23:46:47.334Z,99.90
2017-10-16T23:49:14.869Z,99.90
2017-10-16T23:51:42.381Z,99.90
2017-10-16T23:54:09.904Z,99.90
2017-10-16T23:56:37.443Z,99.90
2017-10-16T23:59:05.715Z,99.90
